Time;durP1;ratioP1;P1;durP2;ratioP2;P2;SDS_P1;SDS_P2;PMS_P1;PMS_P2;Temp;Humidity;BMP_temperature;BMP_pressure;BME280_temperature;BME280_humidity;BME280_pressure;Samples;Min_cycle;Max_cycle;Signal;HPM_P1;HPM_P2
2020/12/19 00:01:16;;;;;;;17.23;13.00;;;;;;;;;;5010067;28;20190;-75
2020/12/19 00:03:42;;;;;;;20.80;13.33;;;;;;;;;;5009542;28;20678;-75
2020/12/19 00:06:08;;;;;;;17.80;12.90;;;;;;;;;;5009750;28;20261;-77
2020/12/19 00:08:33;;;;;;;18.17;13.33;;;;;;;;;;5011268;28;20208;-73
2020/12/19 00:10:58;;;;;;;19.37;13.67;;;;;;;;;;5016827;28;20206;-73
2020/12/19 00:13:23;;;;;;;24.13;14.13;;;;;;;;;;5011470;28;20182;-74
2020/12/19 00:15:48;;;;;;;19.27;13.30;;;;;;;;;;5011805;28;20182;-73
2020/12/19 00:18:14;;;;;;;17.27;13.13;;;;;;;;;;5013200;28;20487;-73
2020/12/19 00:20:39;;;;;;;19.17;13.60;;;;;;;;;;5014313;28;20185;-74
2020/12/19 00:23:04;;;;;;;21.50;14.53;;;;;;;;;;5018808;28;20240;-74
2020/12/19 00:25:29;;;;;;;19.07;12.50;;;;;;;;;;5013697;28;20198;-73
2020/12/19 00:27:54;;;;;;;19.93;14.37;;;;;;;;;;5027174;28;20183;-73
2020/12/19 00:30:20;;;;;;;20.73;14.03;;;;;;;;;;5028634;28;20278;-73
2020/12/19 00:32:45;;;;;;;18.20;12.73;;;;;;;;;;5027959;28;20568;-73
2020/12/19 00:35:10;;;;;;;17.70;11.90;;;;;;;;;;5022704;28;20174;-73
2020/12/19 00:37:42;;;;;;;20.03;12.33;;;;;;;;;;5028820;28;20247;-73
2020/12/19 00:40:07;;;;;;;17.83;12.23;;;;;;;;;;5025099;28;20584;-76
2020/12/19 00:42:35;;;;;;;18.70;12.57;;;;;;;;;;5028724;28;20184;-74
2020/12/19 00:45:00;;;;;;;21.53;13.33;;;;;;;;;;5026354;28;20693;-76
2020/12/19 00:47:25;;;;;;;19.60;12.47;;;;;;;;;;5033458;28;20210;-73
2020/12/19 00:49:50;;;;;;;18.80;11.87;;;;;;;;;;5031299;28;20200;-76
2020/12/19 00:52:18;;;;;;;18.60;12.73;;;;;;;;;;5032219;28;20212;-74
2020/12/19 00:54:44;;;;;;;19.77;13.07;;;;;;;;;;5034635;28;21488;-74
2020/12/19 00:57:09;;;;;;;17.70;12.60;;;;;;;;;;5021222;28;20190;-76
2020/12/19 00:59:34;;;;;;;18.77;12.43;;;;;;;;;;5033079;28;20226;-74
2020/12/19 01:01:59;;;;;;;16.33;12.73;;;;;;;;;;5029993;28;20206;-77
2020/12/19 01:04:26;;;;;;;18.47;12.67;;;;;;;;;;5033250;28;20653;-76
2020/12/19 01:06:51;;;;;;;17.97;12.53;;;;;;;;;;5033389;28;20213;-75
2020/12/19 01:09:16;;;;;;;19.42;12.15;;;;;;;;;;5036715;28;20232;-74
2020/12/19 01:11:42;;;;;;;20.03;12.40;;;;;;;;;;5033128;28;21675;-74
2020/12/19 01:14:07;;;;;;;20.47;13.57;;;;;;;;;;5032811;28;20181;-74
2020/12/19 01:16:32;;;;;;;16.33;11.17;;;;;;;;;;5031171;28;20228;-74
2020/12/19 01:18:58;;;;;;;20.27;11.47;;;;;;;;;;5031189;28;20205;-73
2020/12/19 01:21:25;;;;;;;17.87;12.57;;;;;;;;;;5033666;28;20194;-76
2020/12/19 01:23:51;;;;;;;21.13;11.90;;;;;;;;;;5037461;28;20508;-75
2020/12/19 01:26:16;;;;;;;17.10;11.97;;;;;;;;;;5035453;28;20193;-75
2020/12/19 01:28:42;;;;;;;17.47;12.40;;;;;;;;;;5030126;28;20667;-75
2020/12/19 01:31:08;;;;;;;18.23;11.83;;;;;;;;;;5032800;28;20220;-74
2020/12/19 01:33:34;;;;;;;18.27;13.23;;;;;;;;;;5031203;28;20202;-75
2020/12/19 01:35:59;;;;;;;16.90;12.30;;;;;;;;;;5032107;28;20220;-74
2020/12/19 01:38:24;;;;;;;17.67;12.87;;;;;;;;;;5033230;28;20209;-73
2020/12/19 01:40:53;;;;;;;21.27;12.90;;;;;;;;;;5025490;28;20178;-74
2020/12/19 01:43:19;;;;;;;17.40;11.27;;;;;;;;;;5031252;28;20265;-76
2020/12/19 01:45:44;;;;;;;18.47;12.57;;;;;;;;;;5033012;28;20261;-75
2020/12/19 01:48:19;;;;;;;17.03;12.13;;;;;;;;;;5031436;28;20174;-74
2020/12/19 01:50:46;;;;;;;16.50;11.47;;;;;;;;;;5034579;28;20205;-73
2020/12/19 01:53:11;;;;;;;20.30;13.40;;;;;;;;;;5031201;28;20197;-74
2020/12/19 01:55:36;;;;;;;17.53;12.33;;;;;;;;;;5022187;28;20179;-73
2020/12/19 01:58:01;;;;;;;16.27;12.00;;;;;;;;;;5021677;28;20660;-74
2020/12/19 02:00:27;;;;;;;19.17;13.60;;;;;;;;;;5015696;28;20301;-76
2020/12/19 02:02:52;;;;;;;17.83;12.80;;;;;;;;;;5012102;28;20178;-73
2020/12/19 02:05:17;;;;;;;17.97;12.80;;;;;;;;;;5013413;28;20289;-74
2020/12/19 02:07:43;;;;;;;20.57;13.33;;;;;;;;;;5016277;28;21048;-74
2020/12/19 02:10:08;;;;;;;19.33;13.00;;;;;;;;;;5014285;28;20233;-74
2020/12/19 02:12:33;;;;;;;19.83;13.47;;;;;;;;;;5012671;28;20263;-75
2020/12/19 02:14:58;;;;;;;20.77;13.83;;;;;;;;;;5013331;28;20182;-75
2020/12/19 02:17:23;;;;;;;17.93;13.50;;;;;;;;;;5017433;28;20182;-74
2020/12/19 02:19:48;;;;;;;18.13;12.97;;;;;;;;;;5018523;28;20202;-74
2020/12/19 02:22:14;;;;;;;18.90;14.30;;;;;;;;;;5011915;28;20187;-74
2020/12/19 02:24:39;;;;;;;19.10;12.87;;;;;;;;;;5021215;28;20226;-74
2020/12/19 02:27:04;;;;;;;18.20;13.07;;;;;;;;;;5020131;28;20551;-74
2020/12/19 02:29:31;;;;;;;18.80;13.67;;;;;;;;;;5011323;28;21232;-75
2020/12/19 02:31:56;;;;;;;18.87;13.03;;;;;;;;;;5015203;28;20356;-74
2020/12/19 02:34:22;;;;;;;19.00;13.70;;;;;;;;;;5011167;28;20178;-74
2020/12/19 02:36:47;;;;;;;22.40;14.00;;;;;;;;;;5015498;28;20179;-74
2020/12/19 02:39:12;;;;;;;18.73;13.57;;;;;;;;;;5012137;28;20203;-75
2020/12/19 02:41:39;;;;;;;16.63;11.77;;;;;;;;;;5014751;28;20269;-74
2020/12/19 02:44:05;;;;;;;16.90;12.73;;;;;;;;;;5013414;28;20186;-74
2020/12/19 02:46:31;;;;;;;20.90;12.97;;;;;;;;;;5014212;28;20216;-74
2020/12/19 02:48:56;;;;;;;21.33;14.50;;;;;;;;;;5008343;28;20210;-74
2020/12/19 02:51:21;;;;;;;19.53;13.47;;;;;;;;;;5019054;28;20209;-76
2020/12/19 02:53:46;;;;;;;20.10;13.30;;;;;;;;;;5010513;28;20178;-73
2020/12/19 02:56:11;;;;;;;20.77;14.30;;;;;;;;;;5021697;28;20644;-74
2020/12/19 02:58:36;;;;;;;21.87;14.87;;;;;;;;;;5011681;28;20206;-74
2020/12/19 03:01:02;;;;;;;20.90;13.27;;;;;;;;;;5013210;28;20273;-74
2020/12/19 03:03:27;;;;;;;19.40;12.83;;;;;;;;;;5012148;28;20926;-76
2020/12/19 03:05:52;;;;;;;22.17;14.17;;;;;;;;;;5012508;28;20287;-73
2020/12/19 03:08:17;;;;;;;18.60;13.20;;;;;;;;;;5013213;28;20175;-74
2020/12/19 03:10:43;;;;;;;22.43;13.53;;;;;;;;;;5013260;28;20192;-74
2020/12/19 03:13:08;;;;;;;21.03;13.90;;;;;;;;;;5008225;28;20767;-74
2020/12/19 03:15:33;;;;;;;18.43;12.67;;;;;;;;;;5013047;28;20188;-74
2020/12/19 03:17:59;;;;;;;22.70;13.80;;;;;;;;;;5014484;28;20178;-75
2020/12/19 03:20:24;;;;;;;22.03;13.50;;;;;;;;;;5016033;28;20190;-75
2020/12/19 03:22:49;;;;;;;20.43;13.53;;;;;;;;;;5011644;28;21007;-76
2020/12/19 03:25:14;;;;;;;22.17;13.50;;;;;;;;;;5013179;28;20186;-75
2020/12/19 03:27:40;;;;;;;22.10;13.07;;;;;;;;;;5012003;28;20185;-75
2020/12/19 03:30:05;;;;;;;23.57;15.43;;;;;;;;;;5014868;28;20202;-75
2020/12/19 03:32:30;;;;;;;19.20;13.57;;;;;;;;;;5026452;28;20209;-75
2020/12/19 03:34:55;;;;;;;22.23;13.97;;;;;;;;;;5025196;28;20171;-75
2020/12/19 03:37:20;;;;;;;18.83;12.63;;;;;;;;;;5027805;28;20269;-75
2020/12/19 03:39:46;;;;;;;22.77;14.10;;;;;;;;;;5024119;28;20194;-75
2020/12/19 03:42:11;;;;;;;21.87;15.00;;;;;;;;;;5025925;28;20197;-74
2020/12/19 03:44:36;;;;;;;25.17;14.57;;;;;;;;;;5022439;28;20302;-74
2020/12/19 03:47:01;;;;;;;20.47;13.50;;;;;;;;;;5012901;28;20273;-74
2020/12/19 03:49:26;;;;;;;20.80;13.80;;;;;;;;;;5011813;28;20194;-74
2020/12/19 03:51:52;;;;;;;19.73;14.07;;;;;;;;;;5016544;28;20279;-75
2020/12/19 03:54:17;;;;;;;20.30;14.10;;;;;;;;;;5012587;28;20271;-74
2020/12/19 03:56:42;;;;;;;24.07;14.40;;;;;;;;;;5011434;28;20548;-75
2020/12/19 03:59:08;;;;;;;29.40;14.33;;;;;;;;;;5021900;22;20239;-69
2020/12/19 04:01:33;;;;;;;20.87;13.87;;;;;;;;;;4996882;28;20278;-68
2020/12/19 04:03:58;;;;;;;20.83;13.93;;;;;;;;;;4992120;28;20179;-68
2020/12/19 04:06:23;;;;;;;21.77;14.03;;;;;;;;;;4997507;28;20202;-69
2020/12/19 04:08:48;;;;;;;23.17;13.53;;;;;;;;;;4995576;28;20656;-68
2020/12/19 04:11:13;;;;;;;23.40;14.27;;;;;;;;;;4992690;28;20215;-67
2020/12/19 04:13:39;;;;;;;20.70;14.10;;;;;;;;;;4992462;28;20236;-68
2020/12/19 04:16:04;;;;;;;21.03;12.83;;;;;;;;;;4995665;28;20282;-69
2020/12/19 04:18:29;;;;;;;18.47;12.70;;;;;;;;;;4999535;28;20175;-68
2020/12/19 04:20:54;;;;;;;20.10;13.47;;;;;;;;;;4994122;28;20272;-69
2020/12/19 04:23:19;;;;;;;22.63;13.50;;;;;;;;;;5005324;28;20640;-68
2020/12/19 04:25:45;;;;;;;23.40;14.23;;;;;;;;;;4998436;28;20198;-69
2020/12/19 04:28:10;;;;;;;21.93;13.40;;;;;;;;;;4988715;28;20707;-68
2020/12/19 04:30:35;;;;;;;22.20;13.97;;;;;;;;;;4988872;28;20742;-68
2020/12/19 04:33:00;;;;;;;18.43;12.60;;;;;;;;;;4991623;28;20206;-68
2020/12/19 04:35:25;;;;;;;22.30;14.00;;;;;;;;;;4995318;28;20182;-68
2020/12/19 04:37:50;;;;;;;20.43;13.73;;;;;;;;;;5000046;28;20635;-69
2020/12/19 04:40:16;;;;;;;22.47;14.47;;;;;;;;;;5002127;28;20210;-68
2020/12/19 04:42:41;;;;;;;22.10;13.77;;;;;;;;;;4998547;28;20652;-68
2020/12/19 04:45:07;;;;;;;21.60;13.43;;;;;;;;;;5005176;28;20191;-69
2020/12/19 04:47:33;;;;;;;20.63;12.13;;;;;;;;;;5000024;28;20174;-68
2020/12/19 04:49:59;;;;;;;22.83;13.97;;;;;;;;;;4999935;28;20201;-69
2020/12/19 04:52:24;;;;;;;20.10;12.87;;;;;;;;;;5002695;28;20301;-69
2020/12/19 04:54:50;;;;;;;22.07;14.53;;;;;;;;;;4999072;28;21925;-70
2020/12/19 04:57:19;;;;;;;19.70;13.67;;;;;;;;;;4999453;28;20186;-69
2020/12/19 04:59:45;;;;;;;20.87;13.27;;;;;;;;;;5001403;28;20293;-69
2020/12/19 05:02:10;;;;;;;22.73;13.20;;;;;;;;;;4999326;28;20179;-67
2020/12/19 05:04:39;;;;;;;20.23;13.73;;;;;;;;;;4997225;28;20183;-69
2020/12/19 05:07:07;;;;;;;18.47;13.43;;;;;;;;;;4998599;28;20230;-67
2020/12/19 05:09:39;;;;;;;21.97;13.57;;;;;;;;;;4998443;28;20340;-68
2020/12/19 05:12:04;;;;;;;19.47;13.20;;;;;;;;;;4996106;28;20220;-69
2020/12/19 05:14:30;;;;;;;18.90;13.40;;;;;;;;;;4998259;28;20188;-68
2020/12/19 05:16:55;;;;;;;20.83;13.60;;;;;;;;;;5005549;28;20191;-70
2020/12/19 05:19:21;;;;;;;18.97;12.40;;;;;;;;;;5017477;28;20199;-68
2020/12/19 05:21:46;;;;;;;19.70;13.30;;;;;;;;;;4998072;28;20261;-70
2020/12/19 05:24:15;;;;;;;22.60;13.23;;;;;;;;;;4994896;28;20221;-69
2020/12/19 05:26:41;;;;;;;18.83;13.07;;;;;;;;;;4999189;28;20190;-70
2020/12/19 05:29:06;;;;;;;21.80;13.17;;;;;;;;;;4999036;28;20830;-69
2020/12/19 05:31:33;;;;;;;20.10;12.53;;;;;;;;;;4999548;28;20314;-68
2020/12/19 05:33:58;;;;;;;20.13;12.00;;;;;;;;;;5001530;28;20241;-68
2020/12/19 05:36:24;;;;;;;21.03;12.90;;;;;;;;;;4998538;28;20687;-68
2020/12/19 05:38:50;;;;;;;22.33;13.70;;;;;;;;;;5000130;28;20190;-69
2020/12/19 05:41:15;;;;;;;18.23;12.47;;;;;;;;;;4999313;28;20248;-69
2020/12/19 05:43:47;;;;;;;20.10;13.37;;;;;;;;;;4999307;28;20262;-69
2020/12/19 05:46:25;;;;;;;23.90;12.60;;;;;;;;;;4999149;28;20190;-68
2020/12/19 05:48:50;;;;;;;19.17;12.00;;;;;;;;;;4994378;28;20246;-69
2020/12/19 05:51:15;;;;;;;23.13;13.63;;;;;;;;;;4996377;28;20203;-69
2020/12/19 05:53:42;;;;;;;19.13;13.27;;;;;;;;;;4994725;28;20183;-69
2020/12/19 05:56:09;;;;;;;20.70;14.03;;;;;;;;;;4994121;28;20723;-69
2020/12/19 05:58:34;;;;;;;19.57;13.50;;;;;;;;;;4995304;28;20186;-69
2020/12/19 06:00:59;;;;;;;22.43;14.10;;;;;;;;;;4994732;28;20717;-69
2020/12/19 06:03:25;;;;;;;26.77;14.40;;;;;;;;;;4994179;28;20570;-68
2020/12/19 06:05:50;;;;;;;22.47;13.43;;;;;;;;;;4996621;28;20190;-68
2020/12/19 06:08:22;;;;;;;19.37;13.57;;;;;;;;;;4995813;28;20184;-69
2020/12/19 06:10:48;;;;;;;22.97;13.70;;;;;;;;;;4994098;28;20220;-68
2020/12/19 06:13:18;;;;;;;23.07;13.73;;;;;;;;;;4993539;28;20204;-67
2020/12/19 06:16:01;;;;;;;20.17;13.53;;;;;;;;;;4996886;28;20226;-69
2020/12/19 06:18:33;;;;;;;22.03;14.03;;;;;;;;;;5016031;28;20186;-69
2020/12/19 06:20:58;;;;;;;21.07;14.07;;;;;;;;;;4997085;28;20195;-67
2020/12/19 06:23:31;;;;;;;21.67;13.77;;;;;;;;;;4996602;28;20261;-68
2020/12/19 06:25:56;;;;;;;22.23;13.70;;;;;;;;;;4996437;28;20194;-69
2020/12/19 06:28:37;;;;;;;20.53;13.70;;;;;;;;;;4993235;28;20713;-68
2020/12/19 06:31:05;;;;;;;20.57;13.40;;;;;;;;;;4996705;28;20317;-68
2020/12/19 06:33:35;;;;;;;20.97;14.57;;;;;;;;;;4994624;28;21933;-68
2020/12/19 06:36:21;;;;;;;20.60;14.33;;;;;;;;;;4996710;28;20209;-69
2020/12/19 06:38:46;;;;;;;24.03;14.40;;;;;;;;;;4993369;28;20890;-69
2020/12/19 06:41:31;;;;;;;24.17;13.87;;;;;;;;;;4998968;28;20175;-68
2020/12/19 06:44:03;;;;;;;19.67;13.27;;;;;;;;;;4993876;28;20277;-68
2020/12/19 06:46:29;;;;;;;22.27;13.90;;;;;;;;;;4992996;28;20610;-68
2020/12/19 06:48:54;;;;;;;20.47;13.27;;;;;;;;;;4995035;28;20418;-68
2020/12/19 06:51:19;;;;;;;21.80;13.73;;;;;;;;;;4996860;28;20326;-69
2020/12/19 06:53:53;;;;;;;21.52;13.70;;;;;;;;;;4995142;28;20183;-69
2020/12/19 06:56:27;;;;;;;22.13;13.73;;;;;;;;;;5003566;28;20550;-69
2020/12/19 06:59:02;;;;;;;23.03;14.30;;;;;;;;;;4993776;28;20275;-68
2020/12/19 07:01:28;;;;;;;23.27;14.60;;;;;;;;;;4994493;28;20184;-69
2020/12/19 07:03:53;;;;;;;24.93;15.17;;;;;;;;;;4994613;28;20562;-70
2020/12/19 07:06:18;;;;;;;19.83;13.53;;;;;;;;;;4992464;28;20219;-68
2020/12/19 07:08:44;;;;;;;19.20;13.27;;;;;;;;;;4994706;28;20529;-68
2020/12/19 07:11:13;;;;;;;23.03;14.10;;;;;;;;;;4999093;28;20680;-67
2020/12/19 07:13:51;;;;;;;20.70;14.00;;;;;;;;;;4991972;28;20187;-67
2020/12/19 07:16:35;;;;;;;22.20;13.27;;;;;;;;;;4993696;28;20178;-67
2020/12/19 07:19:13;;;;;;;21.50;14.17;;;;;;;;;;4994633;28;20191;-67
2020/12/19 07:21:39;;;;;;;20.43;14.07;;;;;;;;;;4996067;28;20232;-68
2020/12/19 07:24:04;;;;;;;21.37;14.70;;;;;;;;;;4993235;28;20716;-68
2020/12/19 07:26:29;;;;;;;22.47;15.03;;;;;;;;;;4994674;28;20183;-69
2020/12/19 07:28:54;;;;;;;24.07;14.40;;;;;;;;;;4994645;28;20220;-69
2020/12/19 07:31:19;;;;;;;22.03;15.03;;;;;;;;;;4995160;28;20214;-69
2020/12/19 07:33:44;;;;;;;19.93;12.70;;;;;;;;;;4995006;28;20568;-68
2020/12/19 07:36:10;;;;;;;18.20;12.63;;;;;;;;;;4996465;28;20234;-69
2020/12/19 07:38:36;;;;;;;21.67;13.67;;;;;;;;;;4993569;28;20245;-69
2020/12/19 07:41:03;;;;;;;21.63;13.27;;;;;;;;;;4997449;28;20314;-69
2020/12/19 07:43:28;;;;;;;21.97;13.60;;;;;;;;;;4995316;28;20273;-68
2020/12/19 07:45:57;;;;;;;18.83;13.50;;;;;;;;;;4996972;28;20261;-69
2020/12/19 07:48:22;;;;;;;22.73;13.37;;;;;;;;;;4993929;28;20190;-69
2020/12/19 07:50:48;;;;;;;18.77;12.50;;;;;;;;;;4997207;28;20194;-68
2020/12/19 07:53:13;;;;;;;21.10;13.50;;;;;;;;;;5023716;28;20558;-71
2020/12/19 07:55:38;;;;;;;22.43;12.43;;;;;;;;;;5012270;28;20179;-67
2020/12/19 07:58:03;;;;;;;21.40;13.83;;;;;;;;;;4991691;28;20184;-68
2020/12/19 08:00:29;;;;;;;22.90;14.57;;;;;;;;;;4992755;28;20822;-70
2020/12/19 08:02:54;;;;;;;19.00;12.27;;;;;;;;;;4991727;28;20182;-67
2020/12/19 08:05:20;;;;;;;18.40;12.97;;;;;;;;;;4994033;28;20545;-69
2020/12/19 08:07:49;;;;;;;19.50;12.47;;;;;;;;;;4993888;28;20186;-67
2020/12/19 08:10:15;;;;;;;18.93;12.23;;;;;;;;;;4993106;28;20716;-68
2020/12/19 08:12:40;;;;;;;18.30;12.50;;;;;;;;;;4996036;28;20301;-69
2020/12/19 08:15:07;;;;;;;19.53;14.30;;;;;;;;;;4991291;28;20187;-68
2020/12/19 08:17:35;;;;;;;18.50;13.33;;;;;;;;;;5003679;28;20191;-69
2020/12/19 08:20:00;;;;;;;18.07;12.30;;;;;;;;;;4996928;28;20206;-68
2020/12/19 08:22:26;;;;;;;18.23;13.23;;;;;;;;;;4994850;28;20202;-69
2020/12/19 08:24:51;;;;;;;20.63;12.27;;;;;;;;;;4994088;28;20195;-69
2020/12/19 08:27:32;;;;;;;18.67;12.83;;;;;;;;;;4994306;28;20183;-69
2020/12/19 08:30:00;;;;;;;18.13;12.63;;;;;;;;;;4991435;28;20228;-68
2020/12/19 08:32:26;;;;;;;19.47;12.93;;;;;;;;;;4995143;28;20910;-70
2020/12/19 08:34:51;;;;;;;16.73;11.87;;;;;;;;;;4992846;28;20179;-69
2020/12/19 08:37:19;;;;;;;19.37;12.73;;;;;;;;;;4992447;28;20236;-69
2020/12/19 08:40:00;;;;;;;18.40;12.93;;;;;;;;;;4991381;28;20210;-69
2020/12/19 08:42:29;;;;;;;18.63;12.87;;;;;;;;;;4997569;28;20192;-69
2020/12/19 08:45:09;;;;;;;17.13;12.00;;;;;;;;;;4990661;28;20193;-69
2020/12/19 08:47:35;;;;;;;15.60;11.73;;;;;;;;;;4992900;28;20203;-70
2020/12/19 08:50:02;;;;;;;14.87;10.77;;;;;;;;;;4990500;28;20210;-69
2020/12/19 08:52:27;;;;;;;16.53;12.20;;;;;;;;;;4992220;28;20220;-70
2020/12/19 08:54:59;;;;;;;15.43;11.80;;;;;;;;;;4994457;28;20179;-68
2020/12/19 08:57:33;;;;;;;16.43;11.77;;;;;;;;;;5005472;28;20183;-70
2020/12/19 09:00:12;;;;;;;16.47;11.37;;;;;;;;;;5001630;28;20710;-69
2020/12/19 09:02:38;;;;;;;15.03;10.87;;;;;;;;;;4991788;28;20305;-69
2020/12/19 09:05:03;;;;;;;15.43;10.80;;;;;;;;;;4992049;28;20700;-69
2020/12/19 09:07:28;;;;;;;14.37;10.53;;;;;;;;;;5007665;28;20710;-70
2020/12/19 09:09:54;;;;;;;17.17;11.60;;;;;;;;;;4992684;28;20568;-70
2020/12/19 09:12:22;;;;;;;16.23;10.97;;;;;;;;;;4994182;28;20246;-69
2020/12/19 09:14:48;;;;;;;15.27;11.20;;;;;;;;;;4989396;28;20607;-70
2020/12/19 09:17:26;;;;;;;15.73;11.07;;;;;;;;;;4993472;28;20202;-69
2020/12/19 09:19:58;;;;;;;14.57;10.93;;;;;;;;;;5004659;28;20458;-70
2020/12/19 09:22:24;;;;;;;14.63;9.93;;;;;;;;;;5013310;28;20183;-69
2020/12/19 09:24:49;;;;;;;13.57;10.03;;;;;;;;;;5015341;28;20782;-70
2020/12/19 09:27:14;;;;;;;15.73;11.35;;;;;;;;;;5016039;28;21732;-70
2020/12/19 09:29:39;;;;;;;15.80;10.83;;;;;;;;;;4993464;28;20794;-70
2020/12/19 09:32:04;;;;;;;13.02;9.75;;;;;;;;;;4995120;28;20252;-70
2020/12/19 09:34:29;;;;;;;12.23;9.43;;;;;;;;;;4995529;28;20190;-69
2020/12/19 09:36:55;;;;;;;12.63;9.27;;;;;;;;;;4996646;28;20187;-68
2020/12/19 09:39:20;;;;;;;12.53;8.73;;;;;;;;;;4990484;28;20314;-71
2020/12/19 09:41:45;;;;;;;12.53;10.07;;;;;;;;;;5001334;28;20190;-69
2020/12/19 09:44:10;;;;;;;12.97;8.83;;;;;;;;;;4996935;28;20576;-70
2020/12/19 09:46:35;;;;;;;10.53;9.13;;;;;;;;;;5001024;28;20203;-70
2020/12/19 09:49:00;;;;;;;12.07;8.93;;;;;;;;;;4995294;28;20265;-68
2020/12/19 09:51:29;;;;;;;12.00;8.60;;;;;;;;;;4995440;28;20213;-69
2020/12/19 09:53:54;;;;;;;12.53;8.73;;;;;;;;;;4996035;28;20172;-70
2020/12/19 09:56:19;;;;;;;11.10;9.23;;;;;;;;;;4994801;28;20183;-69
2020/12/19 09:58:44;;;;;;;13.68;8.90;;;;;;;;;;4994988;28;20515;-70
2020/12/19 10:01:10;;;;;;;11.70;8.23;;;;;;;;;;5011314;23;20321;-72
2020/12/19 10:03:35;;;;;;;13.77;9.57;;;;;;;;;;4996666;28;20241;-72
2020/12/19 10:06:00;;;;;;;14.45;8.30;;;;;;;;;;5006845;28;20185;-73
2020/12/19 10:08:26;;;;;;;12.63;8.70;;;;;;;;;;5009520;28;20217;-73
2020/12/19 10:10:51;;;;;;;11.00;8.70;;;;;;;;;;4995709;28;20257;-72
2020/12/19 10:13:16;;;;;;;12.57;8.43;;;;;;;;;;4992218;28;20214;-72
2020/12/19 10:15:42;;;;;;;13.60;8.93;;;;;;;;;;4996838;28;20178;-72
2020/12/19 10:18:07;;;;;;;12.43;9.23;;;;;;;;;;4998223;28;20274;-72
2020/12/19 10:20:33;;;;;;;10.03;7.87;;;;;;;;;;4994048;28;20210;-72
2020/12/19 10:22:58;;;;;;;10.07;8.17;;;;;;;;;;4993552;28;20202;-72
2020/12/19 10:25:23;;;;;;;12.23;9.03;;;;;;;;;;4990061;28;20186;-72
2020/12/19 10:27:49;;;;;;;13.23;8.07;;;;;;;;;;4992107;28;20179;-72
2020/12/19 10:30:14;;;;;;;10.80;7.90;;;;;;;;;;5005467;28;20213;-72
2020/12/19 10:32:39;;;;;;;10.80;8.00;;;;;;;;;;4992184;28;20261;-72
2020/12/19 10:35:06;;;;;;;12.53;8.37;;;;;;;;;;4989055;28;20581;-72
2020/12/19 10:37:32;;;;;;;10.40;7.77;;;;;;;;;;4993255;28;20198;-72
2020/12/19 10:39:57;;;;;;;9.60;7.97;;;;;;;;;;4989077;28;20293;-72
2020/12/19 10:42:23;;;;;;;10.23;8.07;;;;;;;;;;4998644;28;20282;-72
2020/12/19 10:44:48;;;;;;;10.50;7.80;;;;;;;;;;4992612;28;20573;-72
2020/12/19 10:47:13;;;;;;;12.40;8.00;;;;;;;;;;4992789;28;20187;-73
2020/12/19 10:49:38;;;;;;;9.97;8.07;;;;;;;;;;4990367;28;20253;-72
2020/12/19 10:52:04;;;;;;;10.52;7.32;;;;;;;;;;4991920;28;20211;-72
2020/12/19 10:54:29;;;;;;;10.90;8.03;;;;;;;;;;4990892;28;21731;-72
2020/12/19 10:56:55;;;;;;;10.10;6.97;;;;;;;;;;4991057;28;20183;-72
2020/12/19 10:59:20;;;;;;;12.33;7.87;;;;;;;;;;4993096;28;20190;-72
2020/12/19 11:01:46;;;;;;;9.40;7.13;;;;;;;;;;4990925;28;20218;-72
2020/12/19 11:04:11;;;;;;;8.17;6.53;;;;;;;;;;4991857;28;20660;-73
2020/12/19 11:06:37;;;;;;;8.97;7.07;;;;;;;;;;4991803;28;20253;-73
2020/12/19 11:09:02;;;;;;;10.77;7.73;;;;;;;;;;4990823;28;20183;-72
2020/12/19 11:11:27;;;;;;;11.07;7.60;;;;;;;;;;4990341;28;20218;-72
2020/12/19 11:13:52;;;;;;;9.30;7.27;;;;;;;;;;4992780;28;20765;-71
2020/12/19 11:16:20;;;;;;;11.30;7.10;;;;;;;;;;5006607;28;20581;-71
2020/12/19 11:18:46;;;;;;;9.07;6.80;;;;;;;;;;5007917;28;20174;-71
2020/12/19 11:21:11;;;;;;;9.87;7.80;;;;;;;;;;5018248;28;20195;-73
2020/12/19 11:23:37;;;;;;;9.43;7.43;;;;;;;;;;5011468;28;20302;-73
2020/12/19 11:26:03;;;;;;;9.77;7.07;;;;;;;;;;5012931;28;20174;-72
2020/12/19 11:28:28;;;;;;;9.20;7.00;;;;;;;;;;5010786;28;20172;-72
2020/12/19 11:30:55;;;;;;;10.70;6.80;;;;;;;;;;5013544;28;20567;-72
2020/12/19 11:33:21;;;;;;;8.43;6.93;;;;;;;;;;5011163;28;20243;-72
2020/12/19 11:35:46;;;;;;;9.57;6.67;;;;;;;;;;5009213;28;20179;-72
2020/12/19 11:38:12;;;;;;;8.97;6.80;;;;;;;;;;5012669;28;20201;-72
2020/12/19 11:40:37;;;;;;;7.03;5.93;;;;;;;;;;5011658;28;20199;-72
2020/12/19 11:43:02;;;;;;;8.93;6.60;;;;;;;;;;5012990;28;20179;-73
2020/12/19 11:45:28;;;;;;;7.90;5.83;;;;;;;;;;5004506;28;20229;-71
2020/12/19 11:47:53;;;;;;;6.17;4.70;;;;;;;;;;5012145;28;20667;-71
2020/12/19 11:50:18;;;;;;;7.67;5.43;;;;;;;;;;5008021;28;20207;-72
2020/12/19 11:52:43;;;;;;;6.20;4.33;;;;;;;;;;5010790;28;20301;-71
2020/12/19 11:55:08;;;;;;;5.63;4.50;;;;;;;;;;5004536;28;20190;-72
2020/12/19 11:57:33;;;;;;;6.70;4.40;;;;;;;;;;5011809;28;20558;-71
2020/12/19 11:59:59;;;;;;;6.90;4.47;;;;;;;;;;5010595;28;20215;-72
2020/12/19 12:02:24;;;;;;;5.97;4.60;;;;;;;;;;5008589;28;20232;-72
2020/12/19 12:04:49;;;;;;;5.53;4.07;;;;;;;;;;5011527;28;20178;-72
2020/12/19 12:07:14;;;;;;;8.50;5.10;;;;;;;;;;5008632;28;20244;-72
2020/12/19 12:09:39;;;;;;;8.53;5.47;;;;;;;;;;5010854;28;20213;-72
2020/12/19 12:12:05;;;;;;;6.10;4.47;;;;;;;;;;5011449;28;20195;-72
2020/12/19 12:14:30;;;;;;;5.10;4.37;;;;;;;;;;5010405;28;20546;-72
2020/12/19 12:16:55;;;;;;;6.40;5.07;;;;;;;;;;5001246;28;20191;-72
2020/12/19 12:19:20;;;;;;;9.47;5.67;;;;;;;;;;5003872;28;20179;-71
2020/12/19 12:21:45;;;;;;;5.97;4.00;;;;;;;;;;5009287;28;20666;-72
2020/12/19 12:24:11;;;;;;;7.70;4.17;;;;;;;;;;4994791;28;20171;-71
2020/12/19 12:26:36;;;;;;;5.60;3.57;;;;;;;;;;4991516;28;20598;-72
2020/12/19 12:29:02;;;;;;;5.67;3.87;;;;;;;;;;4979143;28;20182;-73
2020/12/19 12:31:28;;;;;;;6.33;4.23;;;;;;;;;;4985857;28;20634;-72
2020/12/19 12:33:53;;;;;;;6.03;4.17;;;;;;;;;;4986993;28;20179;-71
2020/12/19 12:36:20;;;;;;;6.43;3.67;;;;;;;;;;4991417;28;20666;-71
2020/12/19 12:38:45;;;;;;;5.63;3.80;;;;;;;;;;4990319;28;20180;-71
2020/12/19 12:41:10;;;;;;;9.50;3.17;;;;;;;;;;4989168;28;20206;-72
2020/12/19 12:43:36;;;;;;;6.20;3.77;;;;;;;;;;4989881;28;20178;-72
2020/12/19 12:46:01;;;;;;;3.60;3.30;;;;;;;;;;4985574;28;20239;-71
2020/12/19 12:48:26;;;;;;;3.50;3.03;;;;;;;;;;4990825;28;20171;-71
2020/12/19 12:50:51;;;;;;;6.53;3.60;;;;;;;;;;4980921;28;20547;-71
2020/12/19 12:53:16;;;;;;;5.43;3.70;;;;;;;;;;4980845;28;20354;-71
2020/12/19 12:55:42;;;;;;;6.07;3.77;;;;;;;;;;4982019;28;20646;-71
2020/12/19 12:58:07;;;;;;;4.10;3.40;;;;;;;;;;4993694;28;20188;-71
2020/12/19 13:00:32;;;;;;;5.53;3.40;;;;;;;;;;4990648;28;20496;-72
2020/12/19 13:02:57;;;;;;;5.10;3.50;;;;;;;;;;4993685;28;20190;-72
2020/12/19 13:05:22;;;;;;;5.57;3.43;;;;;;;;;;4994534;28;20719;-72
2020/12/19 13:07:47;;;;;;;3.80;3.37;;;;;;;;;;4989772;28;20186;-72
2020/12/19 13:10:13;;;;;;;4.73;3.47;;;;;;;;;;4991463;28;20234;-72
2020/12/19 13:12:38;;;;;;;4.07;3.67;;;;;;;;;;4982624;28;20600;-72
2020/12/19 13:15:03;;;;;;;4.83;3.40;;;;;;;;;;4982418;28;20212;-72
2020/12/19 13:17:28;;;;;;;8.87;4.00;;;;;;;;;;4994761;28;20176;-71
2020/12/19 13:19:54;;;;;;;4.67;3.60;;;;;;;;;;4992883;28;20191;-72
2020/12/19 13:22:19;;;;;;;7.90;4.20;;;;;;;;;;4991913;28;20184;-73
2020/12/19 13:24:44;;;;;;;5.70;4.13;;;;;;;;;;4988605;28;20179;-71
2020/12/19 13:27:09;;;;;;;5.37;4.47;;;;;;;;;;4997156;28;20539;-71
2020/12/19 13:29:35;;;;;;;7.10;4.00;;;;;;;;;;4997212;28;20210;-71
2020/12/19 13:32:00;;;;;;;4.13;3.73;;;;;;;;;;4989337;28;20301;-71
2020/12/19 13:34:25;;;;;;;9.60;4.90;;;;;;;;;;4990525;28;20203;-71
2020/12/19 13:36:50;;;;;;;5.67;3.83;;;;;;;;;;4998670;28;20516;-72
2020/12/19 13:39:15;;;;;;;5.83;4.30;;;;;;;;;;4987597;28;20188;-72
2020/12/19 13:41:41;;;;;;;4.43;3.80;;;;;;;;;;4989364;28;20672;-72
2020/12/19 13:44:07;;;;;;;5.60;4.20;;;;;;;;;;4992288;28;20192;-72
2020/12/19 13:46:32;;;;;;;6.90;4.50;;;;;;;;;;4984665;28;20183;-72
2020/12/19 13:48:57;;;;;;;5.20;3.90;;;;;;;;;;4992435;28;20187;-72
2020/12/19 13:51:28;;;;;;;4.97;4.17;;;;;;;;;;4993623;28;20262;-72
2020/12/19 13:53:54;;;;;;;6.77;4.20;;;;;;;;;;4989310;28;20180;-72
2020/12/19 13:56:19;;;;;;;5.33;4.47;;;;;;;;;;4983287;28;20276;-72
2020/12/19 13:58:44;;;;;;;5.00;4.03;;;;;;;;;;4992173;28;20275;-72
2020/12/19 14:01:10;;;;;;;5.57;3.93;;;;;;;;;;4991646;28;20895;-72
2020/12/19 14:03:35;;;;;;;3.83;3.43;;;;;;;;;;4993075;28;20235;-72
2020/12/19 14:06:00;;;;;;;6.10;3.57;;;;;;;;;;4997179;28;20786;-72
2020/12/19 14:08:25;;;;;;;5.73;3.63;;;;;;;;;;4984705;28;20183;-72
2020/12/19 14:10:50;;;;;;;4.33;3.73;;;;;;;;;;4992804;28;20710;-72
2020/12/19 14:13:15;;;;;;;4.35;3.75;;;;;;;;;;4986636;28;20262;-71
2020/12/19 14:15:41;;;;;;;7.93;3.97;;;;;;;;;;4991119;28;20186;-70
2020/12/19 14:18:06;;;;;;;5.87;4.27;;;;;;;;;;4990318;28;20283;-71